»·PEaware :: SMALL17 KEND-KEND

SMALL17 :: KEND-KEND

FLIGHT INFORMATION

Flight Status: Arrived
Operator: Unknown
More flights by this operator :: More flights under this callsign
Pilot: Austin F. (22273)
Aircraft: BEECH AIRCRAFT T-6A TEXAN
(TEX2)
More flights by this aircraft type
Origin: KEND Vance AFB
United States
Destination: KEND Vance AFB
United States
More flights between these airports :: More routes between these airports
Route: NH DF
File this flight plan on PilotEdge
Remarks:
Altitude:
(Current/Filed)
null
Speed:
(Current/Filed)
0kts
Departed: 26-Jan-22 10:49 AM
Arrived: 26-Jan-22 12:05 PM
Distance/Time
Traveled:
0nm/1:16
Distance/Time
To Go:
Arrived

Flight Plot

Page will automatically refresh every two minutes.

Flight plan parsing failed; only flown route is shown


Map Options




Map Legend


Flown Route
Filed Route
Departure Airport
Arrival Airport
Navaid (VOR, NDB)
Fix

Horizontal Profiles

Position Reports

Time Latitude Longitude Heading Altitude Ground
Speed
26-Jan-22 10:42 36.346100 -97.908232 269 1310ft 0kts
26-Jan-22 10:43 36.346100 -97.908234 269 1310ft 0kts
26-Jan-22 10:44 36.346100 -97.908237 269 1310ft 0kts
26-Jan-22 10:45 36.346916 -97.909868 230 1310ft 0kts
26-Jan-22 10:46 36.346914 -97.909871 230 1310ft 0kts
26-Jan-22 10:47 36.346218 -97.911113 180 1310ft 14kts
26-Jan-22 10:48 36.311797 -97.907551 169 1863ft 201kts
26-Jan-22 10:49 36.264586 -97.897444 168 5153ft 159kts
26-Jan-22 10:50 36.211896 -97.871438 111 5126ft 236kts
26-Jan-22 10:51 36.253865 -97.836370 341 5091ft 241kts
26-Jan-22 10:52 36.317615 -97.865626 338 4905ft 246kts
26-Jan-22 10:53 36.378564 -97.900803 333 5043ft 240kts
26-Jan-22 10:54 36.434179 -97.910840 2 7886ft 168kts
26-Jan-22 10:55 36.478099 -97.892404 34 10509ft 172kts
26-Jan-22 10:56 36.516935 -97.854139 42 12926ft 173kts
26-Jan-22 10:57 36.549447 -97.810840 54 15213ft 171kts
26-Jan-22 10:58 36.580845 -97.764279 48 17151ft 178kts
26-Jan-22 10:59 36.614414 -97.717541 48 18697ft 201kts
26-Jan-22 11:00 36.659111 -97.665140 36 19398ft 230kts
26-Jan-22 11:01 36.657702 -97.640097 222 17029ft 190kts
26-Jan-22 11:02 36.663700 -97.674278 28 17039ft 177kts
26-Jan-22 11:03 36.661361 -97.676967 190 11374ft 214kts
26-Jan-22 11:04 36.661631 -97.689266 21 10317ft 182kts
26-Jan-22 11:05 36.697340 -97.661189 109 9764ft 137kts
26-Jan-22 11:06 36.664372 -97.652363 230 9222ft 144kts
26-Jan-22 11:07 36.671206 -97.692935 295 8969ft 104kts
26-Jan-22 11:08 36.686979 -97.706930 131 9758ft 173kts
26-Jan-22 11:09 36.690256 -97.723286 301 8575ft 106kts
26-Jan-22 11:10 36.702512 -97.715229 99 8753ft 122kts
26-Jan-22 11:11 36.708807 -97.670659 92 10406ft 88kts
26-Jan-22 11:12 36.687447 -97.650155 221 8620ft 188kts
26-Jan-22 11:13 36.709890 -97.657487 57 8746ft 213kts
26-Jan-22 11:14 36.673038 -97.657777 223 8576ft 208kts
26-Jan-22 11:15 36.665103 -97.722951 289 7566ft 237kts
26-Jan-22 11:16 36.688758 -97.794429 293 6569ft 214kts
26-Jan-22 11:17 36.709478 -97.870070 285 4371ft 237kts
26-Jan-22 11:18 36.732380 -97.941907 287 2376ft 207kts
26-Jan-22 11:19 36.737243 -98.002475 273 2277ft 158kts
26-Jan-22 11:20 36.710156 -98.057224 225 2301ft 207kts
26-Jan-22 11:21 36.658569 -98.075735 229 2055ft 193kts
26-Jan-22 11:22 36.671219 -98.124563 332 1697ft 145kts
26-Jan-22 11:23 36.708854 -98.124782 1 1741ft 118kts
26-Jan-22 11:24 36.740241 -98.123300 2 1601ft 131kts
26-Jan-22 11:25 36.734336 -98.109158 178 2294ft 117kts
26-Jan-22 11:26 36.716699 -98.123946 336 1457ft 128kts
26-Jan-22 11:27 36.753353 -98.122613 1 1818ft 193kts
26-Jan-22 11:28 36.758365 -98.075014 183 2243ft 196kts
26-Jan-22 11:29 36.704562 -98.074163 179 2280ft 194kts
26-Jan-22 11:30 36.666562 -98.096000 267 2243ft 191kts
26-Jan-22 11:31 36.703151 -98.124727 357 2118ft 201kts
26-Jan-22 11:32 36.729430 -98.110090 183 2285ft 140kts
26-Jan-22 11:33 36.726753 -98.124006 2 1206ft 110kts
26-Jan-22 11:34 36.766968 -98.118545 87 1809ft 205kts
26-Jan-22 11:35 36.764634 -98.047730 94 4446ft 183kts
26-Jan-22 11:36 36.758661 -97.978043 127 5938ft 230kts
26-Jan-22 11:37 36.716745 -97.909178 130 6004ft 260kts
26-Jan-22 11:38 36.668789 -97.845531 132 5947ft 246kts
26-Jan-22 11:39 36.614110 -97.804928 186 6005ft 241kts
26-Jan-22 11:40 36.545322 -97.805962 174 5987ft 254kts
26-Jan-22 11:41 36.476548 -97.797307 174 6042ft 246kts
26-Jan-22 11:42 36.408307 -97.790961 176 6024ft 245kts
26-Jan-22 11:43 36.339519 -97.796089 185 5402ft 253kts
26-Jan-22 11:44 36.270992 -97.806475 188 5031ft 241kts
26-Jan-22 11:45 36.209313 -97.833643 258 2760ft 227kts
26-Jan-22 11:46 36.211971 -97.899124 319 2261ft 198kts
26-Jan-22 11:47 36.264567 -97.907587 0 2288ft 201kts
26-Jan-22 11:48 36.320540 -97.911125 0 2288ft 206kts
26-Jan-22 11:49 36.328046 -97.896591 177 2298ft 131kts
26-Jan-22 11:50 36.337707 -97.911125 359 1311ft 92kts
26-Jan-22 11:51 36.349712 -97.900577 177 3414ft 155kts
26-Jan-22 11:52 36.335336 -97.910200 359 4245ft 151kts
26-Jan-22 11:53 36.326429 -97.900712 250 2345ft 134kts
26-Jan-22 11:54 36.354429 -97.910602 4 1865ft 151kts
26-Jan-22 11:55 36.329293 -97.899155 200 2411ft 118kts
26-Jan-22 11:56 36.348979 -97.911126 359 1626ft 142kts
26-Jan-22 11:57 36.334309 -97.898151 176 2239ft 117kts
26-Jan-22 11:58 36.326035 -97.852570 90 3108ft 200kts
26-Jan-22 11:59 36.273208 -97.845507 182 3044ft 197kts
26-Jan-22 12:00 36.249589 -97.881522 319 2317ft 191kts
26-Jan-22 12:01 36.295794 -97.910872 358 2317ft 200kts
26-Jan-22 12:02 36.345650 -97.900636 110 2302ft 172kts
26-Jan-22 12:03 36.326335 -97.909823 336 1563ft 116kts
26-Jan-22 12:05 36.345851 -97.911005 359 1310ft 22kts

Navigation Log

Ident Type
Flight plan parsing failed, navigation log unavailable